createdAt,value
2018-12-03T00:01:28.773Z,97359.74
2018-12-03T00:04:15.361Z,97354.52
2018-12-03T00:06:44.354Z,97351.12
2018-12-03T00:09:12.690Z,97359.86
2018-12-03T00:11:40.992Z,97350.16
2018-12-03T00:14:09.826Z,97357.14
2018-12-03T00:16:38.250Z,97348.14
2018-12-03T00:19:14.246Z,97354.98
2018-12-03T00:21:42.647Z,97355.87
2018-12-03T00:24:11.076Z,97351.98
2018-12-03T00:26:39.516Z,97349.83
2018-12-03T00:29:07.870Z,97351.70
2018-12-03T00:31:36.230Z,97358.77
2018-12-03T00:34:04.584Z,97349.82
2018-12-03T00:36:32.905Z,97357.61
2018-12-03T00:39:01.274Z,97349.70
2018-12-03T00:41:29.576Z,97356.52
2018-12-03T00:43:58.026Z,97353.23
2018-12-03T00:46:26.382Z,97361.69
2018-12-03T00:48:55.070Z,97366.61
2018-12-03T00:51:23.423Z,97379.33
2018-12-03T00:53:51.787Z,97375.85
2018-12-03T00:56:20.302Z,97377.06
2018-12-03T00:58:48.633Z,97373.03
2018-12-03T01:01:17.055Z,97367.94
2018-12-03T01:03:45.358Z,97362.16
2018-12-03T01:06:13.750Z,97371.36
2018-12-03T01:08:42.095Z,97364.81
2018-12-03T01:11:10.500Z,97355.48
2018-12-03T01:13:38.868Z,97361.82
2018-12-03T01:16:07.203Z,97372.98
2018-12-03T01:18:35.642Z,97369.13
2018-12-03T01:21:04.018Z,97371.67
2018-12-03T01:23:32.566Z,97383.98
2018-12-03T01:26:01.384Z,97385.83
2018-12-03T01:28:29.694Z,97375.37
2018-12-03T01:30:58.332Z,97380.80
2018-12-03T01:33:26.610Z,97383.37
2018-12-03T01:35:55.073Z,97383.58
2018-12-03T01:38:23.394Z,97391.86
2018-12-03T01:40:51.729Z,97390.29
2018-12-03T01:43:20.229Z,97399.17
2018-12-03T01:45:48.628Z,97383.86
2018-12-03T01:48:16.910Z,97383.69
2018-12-03T01:50:45.313Z,97379.70
2018-12-03T01:53:13.607Z,97389.86
2018-12-03T01:55:42.614Z,97378.73
2018-12-03T01:58:10.902Z,97383.05
2018-12-03T02:00:39.710Z,97386.00
2018-12-03T02:03:08.062Z,97377.28
2018-12-03T02:05:36.369Z,97379.36
2018-12-03T02:08:04.667Z,97381.37
2018-12-03T02:10:32.990Z,97374.31
2018-12-03T02:13:01.270Z,97374.78
2018-12-03T02:15:29.677Z,97385.95
2018-12-03T02:17:57.964Z,97376.61
2018-12-03T02:20:26.459Z,97370.01
2018-12-03T02:22:54.802Z,97368.22
2018-12-03T02:25:23.200Z,97373.24
2018-12-03T02:27:51.494Z,97376.84
2018-12-03T02:30:19.815Z,97377.94
2018-12-03T02:32:48.096Z,97376.36
2018-12-03T02:35:16.575Z,97379.10
2018-12-03T02:37:44.909Z,97376.23
2018-12-03T02:40:15.384Z,97379.74
2018-12-03T02:42:43.683Z,97382.37
2018-12-03T02:45:12.990Z,97379.13
2018-12-03T02:47:41.296Z,97376.59
2018-12-03T02:50:11.695Z,97388.61
2018-12-03T02:52:40.582Z,97383.83
2018-12-03T02:55:10.002Z,97382.00
2018-12-03T02:57:38.546Z,97378.87
2018-12-03T03:00:11.445Z,97382.38
2018-12-03T03:02:39.793Z,97373.27
2018-12-03T03:05:09.938Z,97374.20
2018-12-03T03:07:38.244Z,97388.36
2018-12-03T03:10:12.024Z,97369.50
2018-12-03T03:12:40.555Z,97374.30
2018-12-03T03:15:13.219Z,97363.61
2018-12-03T03:17:41.665Z,97365.98
2018-12-03T03:20:12.728Z,97363.52
2018-12-03T03:22:41.067Z,97362.42
2018-12-03T03:25:10.325Z,97362.78
2018-12-03T03:27:38.862Z,97356.43
2018-12-03T03:30:10.353Z,97376.59
2018-12-03T03:32:38.673Z,97381.54
2018-12-03T03:35:08.458Z,97379.28
2018-12-03T03:37:37.094Z,97390.04
2018-12-03T03:40:08.270Z,97389.11
2018-12-03T03:42:36.727Z,97393.16
2018-12-03T03:45:08.262Z,97397.75
2018-12-03T03:47:36.820Z,97407.24
2018-12-03T03:50:06.276Z,97388.77
2018-12-03T03:52:34.919Z,97401.57
2018-12-03T03:55:03.314Z,97394.03
2018-12-03T03:57:31.896Z,97396.41
2018-12-03T04:00:00.302Z,97390.38
2018-12-03T04:02:29.167Z,97392.34
2018-12-03T04:04:57.821Z,97389.48
2018-12-03T04:07:26.539Z,97384.29
2018-12-03T04:09:55.100Z,97393.73
2018-12-03T04:12:23.667Z,97391.63
2018-12-03T04:14:52.288Z,97391.25
2018-12-03T04:17:21.421Z,97388.56
2018-12-03T04:19:49.952Z,97384.61
2018-12-03T04:22:18.490Z,97387.73
2018-12-03T04:24:47.066Z,97390.73
2018-12-03T04:27:15.778Z,97387.24
2018-12-03T04:29:44.408Z,97387.62
2018-12-03T04:32:12.981Z,97383.81
2018-12-03T04:34:41.672Z,97390.94
2018-12-03T04:37:10.437Z,97387.99
2018-12-03T04:39:39.557Z,97387.52
2018-12-03T04:42:08.448Z,97398.94
2018-12-03T04:44:37.245Z,97400.50
2018-12-03T04:47:06.112Z,97406.22
2018-12-03T04:49:34.819Z,97396.93
2018-12-03T04:52:03.606Z,97385.01
2018-12-03T04:54:32.177Z,97383.08
2018-12-03T04:57:00.644Z,97393.77
2018-12-03T04:59:29.148Z,97385.38
2018-12-03T05:01:57.774Z,97384.27
2018-12-03T05:04:26.200Z,97368.30
2018-12-03T05:06:54.656Z,97382.37
2018-12-03T05:09:23.277Z,97381.98
2018-12-03T05:11:51.772Z,97380.22
2018-12-03T05:14:20.196Z,97385.39
2018-12-03T05:16:48.588Z,97390.92
2018-12-03T05:19:16.891Z,97389.09
2018-12-03T05:21:45.270Z,97391.94
2018-12-03T05:24:13.818Z,97391.81
2018-12-03T05:26:42.208Z,97403.49
2018-12-03T05:29:10.506Z,97401.45
2018-12-03T05:31:38.822Z,97383.43
2018-12-03T05:34:07.280Z,97390.91
2018-12-03T05:36:35.555Z,97408.05
2018-12-03T05:39:04.693Z,97402.63
2018-12-03T05:41:33.017Z,97404.13
2018-12-03T05:44:01.377Z,97407.31
2018-12-03T05:46:29.666Z,97413.39
2018-12-03T05:48:58.172Z,97419.63
2018-12-03T05:51:26.522Z,97430.85
2018-12-03T05:53:54.901Z,97421.38
2018-12-03T05:56:23.202Z,97416.06
2018-12-03T05:58:51.582Z,97426.01
2018-12-03T06:01:19.833Z,97423.14
2018-12-03T06:03:48.246Z,97421.86
2018-12-03T06:06:16.641Z,97419.55
2018-12-03T06:08:44.965Z,97427.86
2018-12-03T06:11:13.287Z,97422.44
2018-12-03T06:13:41.642Z,97420.09
2018-12-03T06:16:10.321Z,97427.13
2018-12-03T06:18:38.594Z,97430.74
2018-12-03T06:21:07.062Z,97435.78
2018-12-03T06:23:35.391Z,97433.52
2018-12-03T06:26:03.700Z,97422.26
2018-12-03T06:28:32.122Z,97435.11
2018-12-03T06:31:00.530Z,97429.06
2018-12-03T06:33:28.851Z,97435.58
2018-12-03T06:35:57.207Z,97433.14
2018-12-03T06:38:25.532Z,97429.42
2018-12-03T06:40:54.032Z,97431.23
2018-12-03T06:43:22.411Z,97423.62
2018-12-03T06:45:50.777Z,97414.11
2018-12-03T06:48:21.826Z,97421.20
2018-12-03T06:50:50.146Z,97421.75
2018-12-03T06:53:18.420Z,97416.95
2018-12-03T06:55:46.957Z,97420.69
2018-12-03T06:58:16.276Z,97429.48
2018-12-03T07:00:46.908Z,97440.40
2018-12-03T07:03:15.184Z,97439.95
2018-12-03T07:05:44.254Z,97437.73
2018-12-03T07:08:12.512Z,97442.94
2018-12-03T07:10:40.767Z,97448.09
2018-12-03T07:13:13.272Z,97455.77
2018-12-03T07:15:43.147Z,97448.66
2018-12-03T07:18:12.246Z,97454.23
2018-12-03T07:20:40.510Z,97446.89
2018-12-03T07:23:08.846Z,97444.07
2018-12-03T07:25:37.418Z,97443.69
2018-12-03T07:28:06.195Z,97442.94
2018-12-03T07:30:34.469Z,97450.72
2018-12-03T07:33:02.741Z,97449.66
2018-12-03T07:35:31.184Z,97451.77
2018-12-03T07:37:59.523Z,97458.62
2018-12-03T07:40:27.818Z,97460.11
2018-12-03T07:42:56.135Z,97460.31
2018-12-03T07:45:25.410Z,97461.69
2018-12-03T07:47:53.727Z,97458.28
2018-12-03T07:50:22.975Z,97469.28
2018-12-03T07:52:51.325Z,97472.75
2018-12-03T07:55:20.869Z,97479.53
2018-12-03T07:57:59.551Z,97486.77
2018-12-03T08:00:33.760Z,97474.67
2018-12-03T08:03:02.166Z,97471.42
2018-12-03T08:05:30.517Z,97470.46
2018-12-03T08:07:59.105Z,97469.87
2018-12-03T08:10:27.512Z,97471.05
2018-12-03T08:12:55.961Z,97465.98
2018-12-03T08:15:24.330Z,97471.69
2018-12-03T08:17:57.399Z,97473.30
2018-12-03T08:20:29.434Z,97475.02
2018-12-03T08:23:01.270Z,97468.45
2018-12-03T08:25:29.578Z,97465.83
2018-12-03T08:27:57.976Z,97469.16
2018-12-03T08:30:26.460Z,97457.34
2018-12-03T08:32:54.902Z,97469.49
2018-12-03T08:35:23.255Z,97473.18
2018-12-03T08:37:51.662Z,97473.82
2018-12-03T08:40:20.469Z,97477.08
2018-12-03T08:42:51.964Z,97460.75
2018-12-03T08:45:21.199Z,97459.47
2018-12-03T08:47:49.992Z,97470.71
2018-12-03T08:50:23.442Z,97477.08
2018-12-03T08:52:51.898Z,97473.05
2018-12-03T08:55:20.224Z,97468.88
2018-12-03T08:57:48.628Z,97470.77
2018-12-03T09:00:32.013Z,97462.45
2018-12-03T09:03:07.186Z,97464.52
2018-12-03T09:05:37.727Z,97452.59
2018-12-03T09:08:07.434Z,97453.27
2018-12-03T09:10:35.926Z,97454.41
2018-12-03T09:13:22.726Z,97455.85
2018-12-03T09:16:03.158Z,97456.77
2018-12-03T09:18:33.597Z,97461.89
2018-12-03T09:21:02.378Z,97469.11
2018-12-03T09:23:30.668Z,97467.84
2018-12-03T09:25:58.971Z,97476.06
2018-12-03T09:28:27.306Z,97466.19
2018-12-03T09:30:55.666Z,97477.52
2018-12-03T09:33:23.930Z,97485.78
2018-12-03T09:35:52.329Z,97483.11
2018-12-03T09:38:20.721Z,97478.45
2018-12-03T09:40:49.034Z,97472.67
2018-12-03T09:43:17.357Z,97475.30
2018-12-03T09:45:45.701Z,97465.73
2018-12-03T09:48:14.045Z,97481.08
2018-12-03T09:50:42.390Z,97476.33
2018-12-03T09:53:10.729Z,97482.68
2018-12-03T09:55:39.164Z,97480.61
2018-12-03T09:58:13.885Z,97487.50
2018-12-03T10:00:42.714Z,97479.19
2018-12-03T10:03:20.812Z,97479.23
2018-12-03T10:05:51.843Z,97463.62
2018-12-03T10:08:27.687Z,97460.28
2018-12-03T10:10:57.216Z,97457.73
2018-12-03T10:13:26.414Z,97454.20
2018-12-03T10:15:54.804Z,97444.70
2018-12-03T10:18:23.168Z,97444.70
2018-12-03T10:20:53.077Z,97422.88
2018-12-03T10:23:21.390Z,97422.03
2018-12-03T10:25:51.914Z,97413.60
2018-12-03T10:28:20.575Z,97405.22
2018-12-03T10:30:49.550Z,97401.41
2018-12-03T10:33:21.954Z,97396.13
2018-12-03T10:35:50.478Z,97388.90
2018-12-03T10:38:21.926Z,97378.41
2018-12-03T10:41:01.109Z,97375.39
2018-12-03T10:43:29.443Z,97365.99
2018-12-03T10:45:57.876Z,97360.08
2018-12-03T10:48:26.128Z,97358.38
2018-12-03T10:50:54.392Z,97357.17
2018-12-03T10:53:27.527Z,97357.53
2018-12-03T10:55:55.973Z,97357.08
2018-12-03T10:58:24.473Z,97349.06
2018-12-03T11:01:05.971Z,97349.23
2018-12-03T11:03:39.550Z,97345.20
2018-12-03T11:06:13.374Z,97339.91
2018-12-03T11:08:41.699Z,97346.30
2018-12-03T11:11:10.039Z,97336.17
2018-12-03T11:13:38.429Z,97338.70
2018-12-03T11:16:09.128Z,97336.61
2018-12-03T11:18:47.471Z,97336.24
2018-12-03T11:21:15.766Z,97336.50
2018-12-03T11:23:44.113Z,97340.39
2018-12-03T11:26:12.407Z,97336.38
2018-12-03T11:28:43.557Z,97347.14
2018-12-03T11:31:19.350Z,97339.45
2018-12-03T11:33:47.670Z,97336.09
2018-12-03T11:36:17.044Z,97335.39
2018-12-03T11:39:55.719Z,97340.64
2018-12-03T11:42:29.080Z,97325.65
2018-12-03T11:44:57.434Z,97329.84
2018-12-03T11:47:25.924Z,97334.26
2018-12-03T11:49:54.310Z,97329.08
2018-12-03T11:52:22.584Z,97329.53
2018-12-03T11:54:50.987Z,97336.00
2018-12-03T11:57:19.325Z,97348.19
2018-12-03T11:59:47.608Z,97348.04
2018-12-03T12:02:16.014Z,97348.45
2018-12-03T12:04:44.478Z,97353.59
2018-12-03T12:07:12.841Z,97338.45
2018-12-03T12:09:41.232Z,97345.94
2018-12-03T12:12:09.614Z,97337.57
2018-12-03T12:14:37.896Z,97324.42
2018-12-03T12:17:06.597Z,97322.75
2018-12-03T12:19:34.890Z,97309.33
2018-12-03T12:22:03.452Z,97302.84
2018-12-03T12:24:31.792Z,97292.42
2018-12-03T12:27:00.109Z,97288.83
2018-12-03T12:29:28.425Z,97293.14
2018-12-03T12:31:56.769Z,97289.91
2018-12-03T12:34:25.074Z,97281.84
2018-12-03T12:36:53.375Z,97284.16
2018-12-03T12:39:21.687Z,97279.48
2018-12-03T12:41:49.985Z,97278.52
2018-12-03T12:44:18.362Z,97281.88
2018-12-03T12:46:48.832Z,97284.11
2018-12-03T12:49:17.139Z,97294.21
2018-12-03T12:51:45.502Z,97300.63
2018-12-03T12:54:13.796Z,97291.91
2018-12-03T12:56:42.146Z,97285.89
2018-12-03T12:59:10.476Z,97288.17
2018-12-03T13:01:38.857Z,97280.81
2018-12-03T13:04:07.794Z,97274.80
2018-12-03T13:06:36.223Z,97269.94
2018-12-03T13:09:07.326Z,97271.92
2018-12-03T13:11:35.780Z,97269.80
2018-12-03T13:14:04.209Z,97270.41
2018-12-03T13:16:32.463Z,97266.91
2018-12-03T13:19:00.714Z,97275.80
2018-12-03T13:21:29.139Z,97289.08
2018-12-03T13:23:57.428Z,97289.39
2018-12-03T13:26:25.903Z,97287.74
2018-12-03T13:28:54.230Z,97280.30
2018-12-03T13:31:22.560Z,97282.23
2018-12-03T13:33:50.892Z,97271.56
2018-12-03T13:36:19.392Z,97274.55
2018-12-03T13:38:47.757Z,97268.38
2018-12-03T13:41:16.034Z,97257.80
2018-12-03T13:43:44.469Z,97253.64
2018-12-03T13:46:12.799Z,97246.05
2018-12-03T13:48:41.294Z,97246.52
2018-12-03T13:51:09.611Z,97243.88
2018-12-03T13:53:38.020Z,97250.34
2018-12-03T13:56:06.534Z,97257.13
2018-12-03T13:58:34.871Z,97261.41
2018-12-03T14:01:03.380Z,97252.21
2018-12-03T14:03:34.227Z,97252.94
2018-12-03T14:06:13.992Z,97258.81
2018-12-03T14:09:28.672Z,97252.67
2018-12-03T14:12:07.779Z,97244.89
2018-12-03T14:15:16.827Z,97239.53
2018-12-03T14:17:49.833Z,97242.95
2018-12-03T14:20:19.428Z,97239.97
2018-12-03T14:22:54.599Z,97250.58
2018-12-03T14:25:23.078Z,97245.69
2018-12-03T14:27:51.408Z,97254.63
2018-12-03T14:30:19.815Z,97255.77
2018-12-03T14:32:48.328Z,97268.43
2018-12-03T14:35:16.716Z,97264.98
2018-12-03T14:37:45.010Z,97271.59
2018-12-03T14:40:13.518Z,97266.77
2018-12-03T14:42:41.883Z,97271.83
2018-12-03T14:45:11.610Z,97261.12
2018-12-03T14:47:39.966Z,97266.99
2018-12-03T14:50:10.101Z,97267.55
2018-12-03T14:52:38.477Z,97275.17
2018-12-03T14:55:07.741Z,97262.43
2018-12-03T14:57:36.239Z,97261.10
2018-12-03T15:00:05.347Z,97255.98
2018-12-03T15:02:34.354Z,97263.20
2018-12-03T15:05:02.857Z,97257.66
2018-12-03T15:07:31.470Z,97256.90
2018-12-03T15:09:59.998Z,97256.38
2018-12-03T15:12:28.350Z,97255.03
2018-12-03T15:14:56.727Z,97253.26
2018-12-03T15:17:25.199Z,97247.08
2018-12-03T15:19:53.839Z,97250.70
2018-12-03T15:22:22.192Z,97244.61
2018-12-03T15:24:50.540Z,97237.97
2018-12-03T15:27:18.930Z,97225.36
2018-12-03T15:29:47.302Z,97218.88
2018-12-03T15:32:15.702Z,97222.59
2018-12-03T15:34:44.071Z,97224.75
2018-12-03T15:37:12.396Z,97225.25
2018-12-03T15:39:40.746Z,97240.98
2018-12-03T15:42:09.176Z,97242.72
2018-12-03T15:44:37.578Z,97232.45
2018-12-03T15:47:05.859Z,97241.86
2018-12-03T15:49:34.247Z,97239.44
2018-12-03T15:52:02.719Z,97247.14
2018-12-03T15:54:31.341Z,97244.97
2018-12-03T15:56:59.840Z,97240.05
2018-12-03T15:59:28.193Z,97232.91
2018-12-03T16:01:56.464Z,97233.16
2018-12-03T16:04:24.947Z,97231.25
2018-12-03T16:06:53.247Z,97224.86
2018-12-03T16:09:21.543Z,97218.45
2018-12-03T16:11:49.877Z,97220.83
2018-12-03T16:14:18.182Z,97208.38
2018-12-03T16:16:46.815Z,97215.56
2018-12-03T16:19:15.159Z,97208.26
2018-12-03T16:21:43.470Z,97216.46
2018-12-03T16:24:11.949Z,97218.82
2018-12-03T16:26:40.281Z,97226.86
2018-12-03T16:29:08.646Z,97225.95
2018-12-03T16:31:37.176Z,97217.50
2018-12-03T16:34:05.515Z,97203.63
2018-12-03T16:36:34.394Z,97188.67
2018-12-03T16:39:02.750Z,97196.64
2018-12-03T16:41:31.015Z,97192.32
2018-12-03T16:43:59.519Z,97180.87
2018-12-03T16:46:27.863Z,97178.56
2018-12-03T16:48:56.294Z,97179.46
2018-12-03T16:51:24.656Z,97185.80
2018-12-03T16:53:53.094Z,97194.36
2018-12-03T16:56:21.459Z,97184.67
2018-12-03T16:58:49.793Z,97177.36
2018-12-03T17:01:18.132Z,97172.73
2018-12-03T17:03:46.439Z,97161.99
2018-12-03T17:06:14.817Z,97172.17
2018-12-03T17:08:43.125Z,97161.45
2018-12-03T17:11:11.490Z,97166.33
2018-12-03T17:13:39.884Z,97163.69
2018-12-03T17:16:08.231Z,97157.86
2018-12-03T17:18:36.632Z,97154.22
2018-12-03T17:21:09.940Z,97147.66
2018-12-03T17:24:45.282Z,97150.98
2018-12-03T17:27:13.656Z,97159.66
2018-12-03T17:29:41.952Z,97156.45
2018-12-03T17:32:10.333Z,97147.97
2018-12-03T17:34:38.977Z,97139.28
2018-12-03T17:37:07.505Z,97135.56
2018-12-03T17:39:36.167Z,97122.08
2018-12-03T17:42:04.526Z,97123.59
2018-12-03T17:44:33.131Z,97126.30
2018-12-03T17:47:01.475Z,97119.70
2018-12-03T17:49:29.834Z,97115.66
2018-12-03T17:51:58.236Z,97110.20
2018-12-03T17:54:26.915Z,97117.91
2018-12-03T17:56:55.950Z,97111.64
2018-12-03T17:59:24.412Z,97116.50
2018-12-03T18:01:53.069Z,97108.02
2018-12-03T18:04:21.466Z,97096.82
2018-12-03T18:06:49.914Z,97102.16
2018-12-03T18:09:18.336Z,97099.84
2018-12-03T18:11:47.109Z,97091.48
2018-12-03T18:14:15.851Z,97089.84
2018-12-03T18:16:44.678Z,97090.02
2018-12-03T18:19:13.201Z,97088.18
2018-12-03T18:21:41.574Z,97093.25
2018-12-03T18:24:10.153Z,97097.53
2018-12-03T18:26:38.557Z,97093.71
2018-12-03T18:29:06.945Z,97096.28
2018-12-03T18:31:36.225Z,97095.89
2018-12-03T18:34:04.835Z,97086.59
2018-12-03T18:36:33.332Z,97087.70
2018-12-03T18:39:01.862Z,97095.27
2018-12-03T18:41:30.281Z,97101.98
2018-12-03T18:43:58.626Z,97105.36
2018-12-03T18:46:27.005Z,97109.09
2018-12-03T18:49:01.793Z,97114.17
2018-12-03T18:51:30.397Z,97116.27
2018-12-03T18:53:58.711Z,97116.03
2018-12-03T18:56:27.139Z,97110.64
2018-12-03T18:58:59.934Z,97102.38
2018-12-03T19:01:28.384Z,97106.94
2018-12-03T19:03:56.814Z,97118.58
2018-12-03T19:06:25.264Z,97113.39
2018-12-03T19:08:54.106Z,97123.92
2018-12-03T19:11:23.213Z,97119.05
2018-12-03T19:13:55.472Z,97113.19
2018-12-03T19:16:28.288Z,97109.02
2018-12-03T19:18:56.880Z,97121.76
2018-12-03T19:21:56.350Z,97134.84
2018-12-03T19:24:24.800Z,97132.78
2018-12-03T19:26:53.336Z,97140.34
2018-12-03T19:29:21.760Z,97141.79
2018-12-03T19:31:50.204Z,97156.59
2018-12-03T19:34:18.682Z,97172.45
2018-12-03T19:36:47.237Z,97177.22
2018-12-03T19:39:19.570Z,97182.70
2018-12-03T19:41:56.915Z,97208.58
2018-12-03T19:44:37.378Z,97220.70
2018-12-03T19:47:23.554Z,97219.69
2018-12-03T19:49:52.144Z,97229.80
2018-12-03T19:52:22.364Z,97225.89
2018-12-03T19:55:10.388Z,97241.48
2018-12-03T19:57:48.730Z,97250.05
2018-12-03T20:00:32.035Z,97256.23
2018-12-03T20:03:00.891Z,97268.39
2018-12-03T20:05:49.167Z,97328.11
2018-12-03T20:08:26.144Z,97303.45
2018-12-03T20:11:13.490Z,97304.84
2018-12-03T20:13:48.224Z,97309.81
2018-12-03T20:16:36.074Z,97311.78
2018-12-03T20:19:15.690Z,97324.42
2018-12-03T20:24:57.168Z,97337.08
2018-12-03T20:27:49.388Z,97372.55
2018-12-03T20:30:37.200Z,97373.45
2018-12-03T20:33:24.129Z,97371.18
2018-12-03T20:38:32.732Z,97378.45
2018-12-03T20:41:18.377Z,97391.42
2018-12-03T20:44:11.527Z,97391.37
2018-12-03T20:51:01.021Z,97418.81
2018-12-03T20:54:03.082Z,97451.77
2018-12-03T20:56:32.051Z,97457.74
2018-12-03T20:59:00.575Z,97467.62
2018-12-03T21:01:29.380Z,97484.98
2018-12-03T21:03:57.778Z,97495.00
2018-12-03T21:06:26.112Z,97497.77
2018-12-03T21:08:54.646Z,97509.65
2018-12-03T21:11:23.066Z,97517.20
2018-12-03T21:13:58.151Z,97519.17
2018-12-03T21:16:26.673Z,97530.84
2018-12-03T21:18:55.425Z,97535.58
2018-12-03T21:21:31.852Z,97536.84
2018-12-03T21:24:00.200Z,97549.77
2018-12-03T21:26:35.975Z,97558.36
2018-12-03T21:29:04.387Z,97565.12
2018-12-03T21:31:32.795Z,97571.81
2018-12-03T21:34:01.398Z,97573.94
2018-12-03T21:36:30.858Z,97584.98
2018-12-03T21:39:04.951Z,97586.06
2018-12-03T21:41:33.405Z,97587.73
2018-12-03T21:44:01.774Z,97596.44
2018-12-03T21:46:30.111Z,97594.36
2018-12-03T21:49:09.836Z,97596.53
2018-12-03T21:51:38.310Z,97599.75
2018-12-03T21:54:22.735Z,97604.27
2018-12-03T21:56:58.306Z,97611.53
2018-12-03T21:59:26.692Z,97627.19
2018-12-03T22:01:55.163Z,97626.51
2018-12-03T22:04:35.943Z,97636.25
2018-12-03T22:07:17.623Z,97635.95
2018-12-03T22:09:54.231Z,97643.74
2018-12-03T22:12:39.865Z,97649.12
2018-12-03T22:15:08.759Z,97646.58
2018-12-03T22:17:46.919Z,97657.08
2018-12-03T22:20:29.116Z,97661.55
2018-12-03T22:22:57.770Z,97666.43
2018-12-03T22:25:26.100Z,97663.91
2018-12-03T22:27:54.414Z,97671.83
2018-12-03T22:30:22.818Z,97678.14
2018-12-03T22:33:01.639Z,97677.57
2018-12-03T22:35:30.124Z,97674.00
2018-12-03T22:37:59.243Z,97670.49
2018-12-03T22:40:27.781Z,97674.67
2018-12-03T22:42:56.774Z,97684.51
2018-12-03T22:45:25.150Z,97694.56
2018-12-03T22:47:53.621Z,97690.77
2018-12-03T22:50:22.080Z,97697.72
2018-12-03T22:52:51.747Z,97709.82
2018-12-03T22:55:20.122Z,97700.20
2018-12-03T22:57:48.633Z,97700.53
2018-12-03T23:00:22.271Z,97704.54
2018-12-03T23:02:50.745Z,97701.89
2018-12-03T23:05:19.261Z,97704.77
2018-12-03T23:07:47.652Z,97715.19
2018-12-03T23:10:18.997Z,97707.72
2018-12-03T23:12:47.657Z,97694.80
2018-12-03T23:15:16.359Z,97703.11
2018-12-03T23:17:44.891Z,97706.13
2018-12-03T23:20:13.386Z,97708.05
2018-12-03T23:22:42.089Z,97701.95
2018-12-03T23:25:10.484Z,97704.42
2018-12-03T23:27:39.026Z,97702.44
2018-12-03T23:30:09.374Z,97707.87
2018-12-03T23:32:40.354Z,97700.94
2018-12-03T23:35:08.758Z,97714.02
2018-12-03T23:37:37.056Z,97712.91
2018-12-03T23:40:05.489Z,97712.47
2018-12-03T23:42:33.839Z,97723.34
2018-12-03T23:45:02.286Z,97727.04
2018-12-03T23:47:30.831Z,97736.25
2018-12-03T23:49:59.202Z,97734.08
2018-12-03T23:52:27.509Z,97729.58
2018-12-03T23:54:56.078Z,97732.73
2018-12-03T23:57:24.515Z,97725.48
2018-12-03T23:59:52.808Z,97729.23
